Time;durP1;ratioP1;P1;durP2;ratioP2;P2;SDS_P1;SDS_P2;PMS_P1;PMS_P2;Temp;Humidity;BMP_temperature;BMP_pressure;BME280_temperature;BME280_humidity;BME280_pressure;Samples;Min_cycle;Max_cycle;Signal;HPM_P1;HPM_P2
2021/03/25 00:00:32;;;;;;;50.97;25.53;;;;;;;;;;5028067;28;20601;-69
2021/03/25 00:03:00;;;;;;;45.80;25.90;;;;;;;;;;5032110;28;20223;-69
2021/03/25 00:05:28;;;;;;;48.67;25.47;;;;;;;;;;5025084;28;20189;-70
2021/03/25 00:07:54;;;;;;;50.63;25.37;;;;;;;;;;5032649;28;20203;-69
2021/03/25 00:10:27;;;;;;;48.73;26.63;;;;;;;;;;5032404;28;20747;-70
2021/03/25 00:12:53;;;;;;;53.43;26.67;;;;;;;;;;5033755;28;20210;-69
2021/03/25 00:15:18;;;;;;;57.17;27.10;;;;;;;;;;5024594;28;20327;-69
2021/03/25 00:17:44;;;;;;;51.60;26.93;;;;;;;;;;5033835;28;20759;-69
2021/03/25 00:20:12;;;;;;;50.60;26.83;;;;;;;;;;5031023;28;22798;-70
2021/03/25 00:22:38;;;;;;;53.50;28.50;;;;;;;;;;5038220;28;20186;-69
2021/03/25 00:25:05;;;;;;;54.93;27.50;;;;;;;;;;5039082;28;20258;-70
2021/03/25 00:27:30;;;;;;;50.50;26.87;;;;;;;;;;5038319;28;20381;-69
2021/03/25 00:29:55;;;;;;;50.47;25.13;;;;;;;;;;5045271;28;20186;-69
2021/03/25 00:32:21;;;;;;;50.37;25.37;;;;;;;;;;5030922;28;20255;-70
2021/03/25 00:34:46;;;;;;;46.30;26.10;;;;;;;;;;5034967;28;20208;-69
2021/03/25 00:37:12;;;;;;;49.27;25.80;;;;;;;;;;5036452;28;20289;-69
2021/03/25 00:39:37;;;;;;;55.03;27.10;;;;;;;;;;5043397;28;20189;-69
2021/03/25 00:42:03;;;;;;;58.83;27.83;;;;;;;;;;5031863;28;20441;-69
2021/03/25 00:44:28;;;;;;;51.90;26.57;;;;;;;;;;5035582;28;20197;-69
2021/03/25 00:46:53;;;;;;;49.07;26.37;;;;;;;;;;5036514;28;20201;-69
2021/03/25 00:49:19;;;;;;;51.93;26.60;;;;;;;;;;5037020;28;20194;-69
2021/03/25 00:51:45;;;;;;;51.33;25.73;;;;;;;;;;5033566;28;20236;-70
2021/03/25 00:54:10;;;;;;;45.80;25.87;;;;;;;;;;5040533;28;20568;-69
2021/03/25 00:56:37;;;;;;;51.33;25.63;;;;;;;;;;5039114;28;20605;-69
2021/03/25 00:59:03;;;;;;;52.37;27.73;;;;;;;;;;5040498;28;20591;-69
2021/03/25 01:01:28;;;;;;;57.63;28.43;;;;;;;;;;5036062;28;20185;-70
2021/03/25 01:03:54;;;;;;;55.27;28.40;;;;;;;;;;5037470;28;20222;-70
2021/03/25 01:06:19;;;;;;;56.07;28.17;;;;;;;;;;5038350;28;20197;-70
2021/03/25 01:08:44;;;;;;;56.23;28.23;;;;;;;;;;5029927;28;20227;-70
2021/03/25 01:11:14;;;;;;;54.47;29.13;;;;;;;;;;5042565;28;20328;-70
2021/03/25 01:13:47;;;;;;;58.97;30.07;;;;;;;;;;5035962;28;20194;-70
2021/03/25 01:16:30;;;;;;;57.90;29.87;;;;;;;;;;5038010;28;20193;-70
2021/03/25 01:18:57;;;;;;;53.37;27.83;;;;;;;;;;5031738;28;20199;-70
2021/03/25 01:21:22;;;;;;;57.77;30.00;;;;;;;;;;5037552;28;20212;-70
2021/03/25 01:23:47;;;;;;;54.20;28.83;;;;;;;;;;5026087;28;20654;-70
2021/03/25 01:26:13;;;;;;;59.87;29.70;;;;;;;;;;5038811;28;20278;-70
2021/03/25 01:28:38;;;;;;;55.93;29.03;;;;;;;;;;5034783;28;20190;-70
2021/03/25 01:31:04;;;;;;;60.57;30.00;;;;;;;;;;5041700;28;20191;-70
2021/03/25 01:33:29;;;;;;;58.80;28.67;;;;;;;;;;5035302;28;20296;-70
2021/03/25 01:35:55;;;;;;;56.17;27.83;;;;;;;;;;5032835;28;20667;-70
2021/03/25 01:38:22;;;;;;;54.87;30.33;;;;;;;;;;5040244;28;20217;-70
2021/03/25 01:40:54;;;;;;;57.73;29.13;;;;;;;;;;5034938;28;21307;-70
2021/03/25 01:43:36;;;;;;;58.17;29.63;;;;;;;;;;5040877;28;20173;-70
2021/03/25 01:46:07;;;;;;;53.37;28.13;;;;;;;;;;5029727;28;20229;-70
2021/03/25 01:48:40;;;;;;;50.73;28.20;;;;;;;;;;5035912;28;20529;-70
2021/03/25 01:51:43;;;;;;;54.13;27.60;;;;;;;;;;5032247;28;20196;-70
2021/03/25 01:54:30;;;;;;;57.83;28.43;;;;;;;;;;5041143;28;20192;-70
2021/03/25 01:57:33;;;;;;;57.20;27.90;;;;;;;;;;5033157;28;20185;-70
2021/03/25 02:00:14;;;;;;;51.20;28.17;;;;;;;;;;5030977;28;20272;-70
2021/03/25 02:03:12;;;;;;;51.20;26.57;;;;;;;;;;5039330;28;20217;-70
2021/03/25 02:05:52;;;;;;;52.10;25.97;;;;;;;;;;5031132;28;20197;-70
2021/03/25 02:08:39;;;;;;;53.13;27.07;;;;;;;;;;5041799;28;20189;-70
2021/03/25 02:11:27;;;;;;;51.37;27.30;;;;;;;;;;5033544;28;20193;-70
2021/03/25 02:14:06;;;;;;;53.43;27.47;;;;;;;;;;5039252;28;20193;-70
2021/03/25 02:16:42;;;;;;;49.00;26.30;;;;;;;;;;5030985;28;20251;-70
2021/03/25 02:19:32;;;;;;;49.83;26.10;;;;;;;;;;5035489;28;20224;-70
2021/03/25 02:22:28;;;;;;;51.50;27.83;;;;;;;;;;5032475;28;20198;-71
2021/03/25 02:25:01;;;;;;;51.23;27.90;;;;;;;;;;5040738;28;20691;-70
2021/03/25 02:27:47;;;;;;;55.27;28.40;;;;;;;;;;5025773;28;20193;-70
2021/03/25 02:30:45;;;;;;;52.43;28.73;;;;;;;;;;5035242;28;20182;-70
2021/03/25 02:33:16;;;;;;;54.03;28.73;;;;;;;;;;5013987;28;20253;-70
2021/03/25 02:35:47;;;;;;;46.27;26.90;;;;;;;;;;5038607;28;20518;-70
2021/03/25 02:38:14;;;;;;;58.07;28.27;;;;;;;;;;5033839;28;20219;-70
2021/03/25 02:40:53;;;;;;;55.40;27.90;;;;;;;;;;5040275;28;20272;-70
2021/03/25 02:43:27;;;;;;;46.83;25.97;;;;;;;;;;5036654;28;20185;-70
2021/03/25 02:46:00;;;;;;;50.07;26.87;;;;;;;;;;5034344;28;20232;-70
2021/03/25 02:48:29;;;;;;;49.43;27.27;;;;;;;;;;5030961;28;20205;-70
2021/03/25 02:51:06;;;;;;;50.40;26.87;;;;;;;;;;5036688;28;20376;-70
2021/03/25 02:53:39;;;;;;;51.10;28.20;;;;;;;;;;5032612;28;20212;-70
2021/03/25 02:56:11;;;;;;;53.23;27.87;;;;;;;;;;5033878;28;20212;-70
2021/03/25 02:58:39;;;;;;;51.03;27.17;;;;;;;;;;5029645;28;20193;-70
2021/03/25 03:01:13;;;;;;;50.63;26.00;;;;;;;;;;5035866;28;20344;-70
2021/03/25 03:03:50;;;;;;;46.87;27.73;;;;;;;;;;5033499;28;20353;-70
2021/03/25 03:06:24;;;;;;;57.20;28.03;;;;;;;;;;5038617;28;20734;-70
2021/03/25 03:08:50;;;;;;;47.63;26.03;;;;;;;;;;5032338;28;20193;-70
2021/03/25 03:11:25;;;;;;;48.87;26.63;;;;;;;;;;5035030;28;20214;-70
2021/03/25 03:13:57;;;;;;;48.43;27.10;;;;;;;;;;5031087;28;20189;-70
2021/03/25 03:16:42;;;;;;;50.27;27.00;;;;;;;;;;5039308;28;20185;-70
2021/03/25 03:19:26;;;;;;;48.27;27.20;;;;;;;;;;5031869;28;23002;-70
2021/03/25 03:21:57;;;;;;;54.27;28.23;;;;;;;;;;5035691;28;20190;-70
2021/03/25 03:24:22;;;;;;;52.67;28.67;;;;;;;;;;5034378;28;21871;-70
2021/03/25 03:26:53;;;;;;;52.10;28.73;;;;;;;;;;5036796;28;20188;-70
2021/03/25 03:29:21;;;;;;;46.77;27.20;;;;;;;;;;5041297;28;20243;-70
2021/03/25 03:31:52;;;;;;;57.00;29.13;;;;;;;;;;5035158;28;20228;-70
2021/03/25 03:34:24;;;;;;;51.27;27.50;;;;;;;;;;5044543;28;20193;-70
2021/03/25 03:36:53;;;;;;;58.63;29.10;;;;;;;;;;5030901;28;20284;-70
2021/03/25 03:39:23;;;;;;;50.03;28.40;;;;;;;;;;5038522;28;20208;-70
2021/03/25 03:41:54;;;;;;;54.63;28.17;;;;;;;;;;5024412;28;20228;-70
2021/03/25 03:44:25;;;;;;;54.07;28.87;;;;;;;;;;5043061;28;20197;-70
2021/03/25 03:46:52;;;;;;;57.00;29.83;;;;;;;;;;5027751;28;20239;-70
2021/03/25 03:49:35;;;;;;;59.97;31.00;;;;;;;;;;5042580;28;20785;-70
2021/03/25 03:52:11;;;;;;;53.53;29.90;;;;;;;;;;5026649;28;20221;-70
2021/03/25 03:54:38;;;;;;;59.77;30.00;;;;;;;;;;5041347;28;20246;-70
2021/03/25 03:57:13;;;;;;;61.13;32.00;;;;;;;;;;5025175;28;20644;-70
2021/03/25 03:59:56;;;;;;;54.97;29.87;;;;;;;;;;5041734;28;20219;-70
2021/03/25 04:02:42;;;;;;;52.67;28.23;;;;;;;;;;5037106;28;20307;-70
2021/03/25 04:05:31;;;;;;;58.80;29.73;;;;;;;;;;5039290;28;20206;-70
2021/03/25 04:08:21;;;;;;;62.00;29.93;;;;;;;;;;5030995;28;20205;-70
2021/03/25 04:10:57;;;;;;;55.27;29.63;;;;;;;;;;5043496;28;21326;-70
2021/03/25 04:13:30;;;;;;;53.70;29.73;;;;;;;;;;5034048;28;20664;-70
2021/03/25 04:15:55;;;;;;;53.13;28.07;;;;;;;;;;5040355;28;20279;-70
2021/03/25 04:18:34;;;;;;;47.40;26.63;;;;;;;;;;5034363;28;20641;-70
2021/03/25 04:21:09;;;;;;;50.97;27.73;;;;;;;;;;5041848;28;20364;-70
2021/03/25 04:23:37;;;;;;;50.10;26.80;;;;;;;;;;5040241;28;20193;-70
2021/03/25 04:26:21;;;;;;;50.57;27.57;;;;;;;;;;5037593;28;20186;-70
2021/03/25 04:28:57;;;;;;;61.57;28.97;;;;;;;;;;5039799;28;20639;-70
2021/03/25 04:31:23;;;;;;;53.20;28.47;;;;;;;;;;5037902;28;20213;-70
2021/03/25 04:33:48;;;;;;;54.07;28.93;;;;;;;;;;5041064;28;20220;-70
2021/03/25 04:36:21;;;;;;;55.53;28.90;;;;;;;;;;5040551;28;20626;-70
2021/03/25 04:38:47;;;;;;;58.23;30.33;;;;;;;;;;5035281;28;20679;-70
2021/03/25 04:41:14;;;;;;;54.77;31.63;;;;;;;;;;5037408;28;20190;-70
2021/03/25 04:43:42;;;;;;;65.60;34.23;;;;;;;;;;5032686;28;20204;-70
2021/03/25 04:46:35;;;;;;;56.27;31.70;;;;;;;;;;5037988;28;20309;-70
2021/03/25 04:49:04;;;;;;;57.13;29.73;;;;;;;;;;5032114;28;20185;-70
2021/03/25 04:51:30;;;;;;;53.83;29.27;;;;;;;;;;5041312;28;20228;-70
2021/03/25 04:54:19;;;;;;;55.97;30.37;;;;;;;;;;5036193;28;20194;-70
2021/03/25 04:56:45;;;;;;;50.50;29.30;;;;;;;;;;5044420;28;20200;-70
2021/03/25 04:59:10;;;;;;;53.17;28.90;;;;;;;;;;5028211;28;20197;-70
2021/03/25 05:01:36;;;;;;;57.23;30.90;;;;;;;;;;5043702;28;20178;-70
2021/03/25 05:04:05;;;;;;;56.50;28.90;;;;;;;;;;5033446;28;20245;-70
2021/03/25 05:06:52;;;;;;;52.80;29.57;;;;;;;;;;5041210;28;20208;-70
2021/03/25 05:09:20;;;;;;;60.13;32.80;;;;;;;;;;5030539;28;20590;-71
2021/03/25 05:11:46;;;;;;;56.60;31.13;;;;;;;;;;5044578;28;20578;-70
2021/03/25 05:14:26;;;;;;;60.43;31.33;;;;;;;;;;5031088;28;20181;-70
2021/03/25 05:17:10;;;;;;;64.90;32.73;;;;;;;;;;5040092;28;20188;-70
2021/03/25 05:19:54;;;;;;;61.93;32.13;;;;;;;;;;5039126;28;20185;-70
2021/03/25 05:22:41;;;;;;;60.53;30.27;;;;;;;;;;5035754;28;20247;-70
2021/03/25 05:25:28;;;;;;;59.50;30.60;;;;;;;;;;5034825;28;20239;-70
2021/03/25 05:27:59;;;;;;;60.77;31.07;;;;;;;;;;5033503;28;20190;-70
2021/03/25 05:30:28;;;;;;;61.60;31.77;;;;;;;;;;5031773;28;20665;-70
2021/03/25 05:33:16;;;;;;;61.97;32.30;;;;;;;;;;5045676;28;20217;-70
2021/03/25 05:35:46;;;;;;;60.23;31.03;;;;;;;;;;5035137;28;20189;-70
2021/03/25 05:38:12;;;;;;;60.50;31.40;;;;;;;;;;5038662;28;20267;-70
2021/03/25 05:40:45;;;;;;;67.67;32.43;;;;;;;;;;5034182;28;20625;-70
2021/03/25 05:43:23;;;;;;;60.07;32.73;;;;;;;;;;5034077;28;20209;-70
2021/03/25 05:45:57;;;;;;;58.27;30.47;;;;;;;;;;5042758;28;20590;-70
2021/03/25 05:48:48;;;;;;;62.87;33.27;;;;;;;;;;5034209;28;20197;-70
2021/03/25 05:51:34;;;;;;;63.30;33.00;;;;;;;;;;5030846;28;20197;-70
2021/03/25 05:54:25;;;;;;;69.17;36.07;;;;;;;;;;5039196;28;20232;-70
2021/03/25 05:57:04;;;;;;;70.00;36.50;;;;;;;;;;5029773;28;20225;-70
2021/03/25 05:59:38;;;;;;;73.87;36.93;;;;;;;;;;5040883;28;20272;-70
2021/03/25 06:02:08;;;;;;;72.95;37.58;;;;;;;;;;5024575;28;20667;-70
2021/03/25 06:04:35;;;;;;;73.47;36.87;;;;;;;;;;5035324;28;20554;-70
2021/03/25 06:07:15;;;;;;;74.13;36.83;;;;;;;;;;5029617;28;20182;-70
2021/03/25 06:10:13;;;;;;;72.23;36.17;;;;;;;;;;5038914;28;20204;-70
2021/03/25 06:12:43;;;;;;;69.87;36.20;;;;;;;;;;4331772;28;10000720;-70
2021/03/25 06:15:28;;;;;;;72.47;37.37;;;;;;;;;;5036552;28;20185;-70
2021/03/25 06:18:02;;;;;;;80.17;38.83;;;;;;;;;;5023552;28;20220;-70
2021/03/25 06:20:49;;;;;;;77.30;37.50;;;;;;;;;;5037604;28;20216;-70
2021/03/25 06:23:55;;;;;;;77.40;36.73;;;;;;;;;;5022559;28;20238;-70
2021/03/25 06:26:47;;;;;;;76.00;38.87;;;;;;;;;;5040093;28;20664;-70
2021/03/25 06:29:19;;;;;;;73.20;37.60;;;;;;;;;;5028317;28;20277;-70
2021/03/25 06:31:51;;;;;;;74.73;37.63;;;;;;;;;;5034320;28;20645;-70
2021/03/25 06:34:28;;;;;;;72.97;38.53;;;;;;;;;;5029807;28;20192;-70
2021/03/25 06:36:58;;;;;;;77.60;39.13;;;;;;;;;;5038073;28;20265;-70
2021/03/25 06:39:36;;;;;;;82.27;40.47;;;;;;;;;;5031456;28;20217;-70
2021/03/25 06:42:14;;;;;;;78.20;39.33;;;;;;;;;;5039288;28;20170;-70
2021/03/25 06:44:54;;;;;;;78.50;40.27;;;;;;;;;;5034566;28;20263;-70
2021/03/25 06:47:24;;;;;;;81.47;39.47;;;;;;;;;;5033373;28;20212;-69
2021/03/25 06:49:57;;;;;;;79.37;39.10;;;;;;;;;;4669735;28;9999655;-70
2021/03/25 06:52:27;;;;;;;74.00;38.47;;;;;;;;;;5028600;28;20197;-70
2021/03/25 06:55:11;;;;;;;75.17;38.77;;;;;;;;;;5028242;28;20347;-70
2021/03/25 06:57:46;;;;;;;77.07;38.93;;;;;;;;;;5037276;28;20185;-70
2021/03/25 07:00:15;;;;;;;74.97;39.47;;;;;;;;;;5025402;28;20189;-71
2021/03/25 07:02:43;;;;;;;78.53;41.17;;;;;;;;;;5037683;28;20186;-70
2021/03/25 07:05:11;;;;;;;77.55;39.25;;;;;;;;;;5021550;28;20186;-71
2021/03/25 07:07:40;;;;;;;78.87;40.23;;;;;;;;;;5028686;28;20261;-70
2021/03/25 07:10:08;;;;;;;79.03;40.30;;;;;;;;;;5031778;28;20185;-70
2021/03/25 07:12:37;;;;;;;72.13;39.67;;;;;;;;;;5024239;28;20205;-70
2021/03/25 07:15:05;;;;;;;74.23;39.47;;;;;;;;;;5034819;28;20715;-70
2021/03/25 07:17:37;;;;;;;69.97;37.20;;;;;;;;;;5023978;28;20196;-70
2021/03/25 07:20:15;;;;;;;78.78;43.42;;;;;;;;;;5037528;28;20211;-70
2021/03/25 07:22:40;;;;;;;81.40;42.65;;;;;;;;;;5022488;28;20255;-70
2021/03/25 07:25:22;;;;;;;85.38;40.92;;;;;;;;;;5032629;28;20657;-70
2021/03/25 07:27:48;;;;;;;75.97;43.30;;;;;;;;;;5028956;28;20190;-70
2021/03/25 07:30:16;;;;;;;84.72;42.78;;;;;;;;;;5035113;28;20240;-70
2021/03/25 07:32:52;;;;;;;83.22;42.40;;;;;;;;;;5031510;28;20202;-70
2021/03/25 07:35:31;;;;;;;85.55;42.90;;;;;;;;;;5031351;28;20254;-70
2021/03/25 07:37:58;;;;;;;73.45;39.80;;;;;;;;;;5025986;28;20712;-70
2021/03/25 07:40:38;;;;;;;77.80;40.70;;;;;;;;;;5035826;28;20647;-70
2021/03/25 07:43:15;;;;;;;67.53;39.13;;;;;;;;;;5025809;28;20198;-70
2021/03/25 07:45:41;;;;;;;81.93;42.03;;;;;;;;;;5037016;28;20595;-70
2021/03/25 07:48:33;;;;;;;74.95;40.42;;;;;;;;;;5033831;28;20189;-71
2021/03/25 07:51:14;;;;;;;79.40;41.95;;;;;;;;;;5037278;28;20255;-70
2021/03/25 07:53:39;;;;;;;77.55;42.33;;;;;;;;;;5025607;28;20205;-70
2021/03/25 07:56:08;;;;;;;80.55;43.08;;;;;;;;;;5037257;28;20189;-70
2021/03/25 07:58:36;;;;;;;79.22;42.63;;;;;;;;;;5031249;28;20185;-70
2021/03/25 08:01:18;;;;;;;69.13;39.05;;;;;;;;;;5041258;28;20680;-71
2021/03/25 08:03:58;;;;;;;81.07;43.78;;;;;;;;;;5032578;28;20201;-71
2021/03/25 08:06:31;;;;;;;74.55;41.95;;;;;;;;;;5036877;28;20684;-70
2021/03/25 08:09:13;;;;;;;79.60;43.53;;;;;;;;;;5035674;28;20221;-70
2021/03/25 08:11:55;;;;;;;73.72;40.88;;;;;;;;;;5034136;28;20201;-70
2021/03/25 08:14:29;;;;;;;69.18;37.55;;;;;;;;;;5032562;28;20311;-70
2021/03/25 08:17:01;;;;;;;73.03;40.30;;;;;;;;;;5040316;28;20649;-70
2021/03/25 08:19:38;;;;;;;75.43;39.03;;;;;;;;;;5034304;28;20186;-70
2021/03/25 08:22:21;;;;;;;73.80;41.25;;;;;;;;;;5031570;28;20174;-70
2021/03/25 08:25:13;;;;;;;71.72;40.67;;;;;;;;;;5034880;28;20268;-70
2021/03/25 08:27:52;;;;;;;63.78;37.58;;;;;;;;;;5036531;28;20658;-71
2021/03/25 08:30:48;;;;;;;66.07;36.00;;;;;;;;;;5036243;28;20201;-71
2021/03/25 08:33:26;;;;;;;79.25;38.92;;;;;;;;;;5038054;28;20202;-71
2021/03/25 08:36:11;;;;;;;72.82;38.08;;;;;;;;;;5030285;28;20208;-71
2021/03/25 08:39:06;;;;;;;70.97;37.97;;;;;;;;;;5040843;28;20630;-70
2021/03/25 08:41:50;;;;;;;73.68;38.20;;;;;;;;;;5032014;28;20185;-71
2021/03/25 08:44:25;;;;;;;64.15;35.78;;;;;;;;;;5036671;28;20547;-70
2021/03/25 08:47:07;;;;;;;65.85;36.60;;;;;;;;;;5030674;28;20491;-70
2021/03/25 08:50:01;;;;;;;62.13;34.05;;;;;;;;;;5036941;28;20193;-71
2021/03/25 08:52:34;;;;;;;68.85;34.17;;;;;;;;;;5024809;28;20557;-71
2021/03/25 08:55:29;;;;;;;59.78;34.00;;;;;;;;;;5039987;28;20270;-71
2021/03/25 08:58:00;;;;;;;60.10;33.97;;;;;;;;;;5029005;28;20198;-71
2021/03/25 09:00:29;;;;;;;58.25;33.88;;;;;;;;;;5042676;28;20181;-71
2021/03/25 09:03:09;;;;;;;59.30;33.63;;;;;;;;;;5038651;28;20192;-71
2021/03/25 09:05:48;;;;;;;61.85;33.95;;;;;;;;;;5038221;28;21632;-71
2021/03/25 09:08:17;;;;;;;61.67;34.63;;;;;;;;;;5037371;28;20243;-71
2021/03/25 09:10:51;;;;;;;59.03;33.20;;;;;;;;;;5039107;28;20195;-71
2021/03/25 09:13:25;;;;;;;58.60;32.72;;;;;;;;;;5031384;28;20244;-71
2021/03/25 09:15:54;;;;;;;62.38;35.25;;;;;;;;;;5039354;28;20711;-71
2021/03/25 09:18:23;;;;;;;63.78;35.00;;;;;;;;;;5032758;28;20189;-71
2021/03/25 09:20:51;;;;;;;64.50;35.42;;;;;;;;;;5038531;28;20280;-71
2021/03/25 09:23:28;;;;;;;68.72;39.22;;;;;;;;;;5033528;28;20268;-70
2021/03/25 09:25:55;;;;;;;63.70;35.95;;;;;;;;;;5039741;28;20205;-71
2021/03/25 09:28:21;;;;;;;64.28;35.45;;;;;;;;;;5035896;28;20668;-71
2021/03/25 09:31:11;;;;;;;65.93;36.15;;;;;;;;;;5038309;28;20551;-70
2021/03/25 09:33:50;;;;;;;65.88;34.97;;;;;;;;;;5032365;28;20252;-71
2021/03/25 09:36:18;;;;;;;58.08;33.53;;;;;;;;;;5041562;28;20184;-71
2021/03/25 09:38:50;;;;;;;60.72;32.58;;;;;;;;;;5034164;28;20186;-71
2021/03/25 09:41:40;;;;;;;63.88;36.47;;;;;;;;;;5037506;28;20299;-71
2021/03/25 09:44:09;;;;;;;59.90;34.13;;;;;;;;;;5026949;28;20267;-71
2021/03/25 09:47:11;;;;;;;60.60;32.90;;;;;;;;;;5037924;28;20236;-71
2021/03/25 09:49:44;;;;;;;63.90;33.90;;;;;;;;;;5017877;28;20213;-71
2021/03/25 09:52:12;;;;;;;62.78;34.15;;;;;;;;;;5040610;28;20209;-71
2021/03/25 09:54:39;;;;;;;60.78;33.97;;;;;;;;;;5036978;28;20555;-71
2021/03/25 09:57:19;;;;;;;57.95;32.00;;;;;;;;;;5043005;28;20260;-71
2021/03/25 10:00:10;;;;;;;60.72;33.08;;;;;;;;;;5032697;28;20193;-70
2021/03/25 10:02:42;;;;;;;59.83;30.10;;;;;;;;;;5021655;28;20356;-70
2021/03/25 10:05:30;;;;;;;53.88;29.95;;;;;;;;;;5030797;28;20213;-70
2021/03/25 10:07:59;;;;;;;54.63;29.10;;;;;;;;;;5037215;28;20200;-71
2021/03/25 10:10:44;;;;;;;55.67;31.58;;;;;;;;;;5031054;28;20192;-71
2021/03/25 10:13:13;;;;;;;53.53;30.50;;;;;;;;;;5039658;28;20221;-72
2021/03/25 10:15:47;;;;;;;52.22;30.23;;;;;;;;;;5032268;28;20284;-72
2021/03/25 10:18:15;;;;;;;50.05;29.58;;;;;;;;;;5041063;28;20200;-72
2021/03/25 10:21:06;;;;;;;55.05;29.60;;;;;;;;;;5024012;28;20182;-71
2021/03/25 10:23:50;;;;;;;47.88;26.48;;;;;;;;;;5035298;28;20193;-71
2021/03/25 10:26:29;;;;;;;48.35;26.55;;;;;;;;;;5026232;28;20689;-69
2021/03/25 10:29:02;;;;;;;41.33;24.70;;;;;;;;;;5038027;28;20201;-70
2021/03/25 10:31:45;;;;;;;43.35;24.63;;;;;;;;;;5030212;28;20188;-70
2021/03/25 10:34:25;;;;;;;48.13;25.15;;;;;;;;;;5035293;28;20231;-70
2021/03/25 10:36:58;;;;;;;40.50;23.75;;;;;;;;;;5033907;28;20665;-70
2021/03/25 10:39:27;;;;;;;47.00;24.70;;;;;;;;;;5039565;28;20315;-70
2021/03/25 10:41:54;;;;;;;41.33;24.38;;;;;;;;;;5032705;28;20186;-70
2021/03/25 10:44:30;;;;;;;49.00;25.67;;;;;;;;;;5036452;28;20660;-70
2021/03/25 10:46:59;;;;;;;46.40;26.90;;;;;;;;;;5030124;28;20189;-70
2021/03/25 10:49:44;;;;;;;43.63;25.45;;;;;;;;;;5038365;28;20197;-70
2021/03/25 10:52:19;;;;;;;43.97;25.77;;;;;;;;;;5029007;28;20565;-71
2021/03/25 10:54:45;;;;;;;49.90;26.95;;;;;;;;;;5040609;28;20202;-70
2021/03/25 10:57:29;;;;;;;44.55;26.38;;;;;;;;;;5032204;28;20189;-71
2021/03/25 11:00:06;;;;;;;44.22;27.25;;;;;;;;;;5040871;28;20204;-71
2021/03/25 11:02:43;;;;;;;45.85;26.30;;;;;;;;;;5034713;28;20597;-71
2021/03/25 11:05:20;;;;;;;48.25;26.27;;;;;;;;;;5036159;28;20268;-71
2021/03/25 11:07:51;;;;;;;42.40;24.85;;;;;;;;;;5026614;28;20292;-70
2021/03/25 11:10:32;;;;;;;44.75;24.08;;;;;;;;;;5035329;28;20261;-70
2021/03/25 11:13:12;;;;;;;43.40;24.83;;;;;;;;;;5031154;28;20305;-70
2021/03/25 11:15:44;;;;;;;39.42;23.50;;;;;;;;;;5037313;28;20239;-70
2021/03/25 11:18:31;;;;;;;43.97;23.83;;;;;;;;;;5035475;28;20189;-70
2021/03/25 11:20:56;;;;;;;45.42;24.73;;;;;;;;;;5038456;28;20182;-70
2021/03/25 11:23:25;;;;;;;49.70;26.50;;;;;;;;;;5035165;28;20192;-70
2021/03/25 11:26:00;;;;;;;42.55;25.23;;;;;;;;;;5036864;28;20324;-70
2021/03/25 11:28:28;;;;;;;47.13;26.70;;;;;;;;;;5034023;28;20192;-70
2021/03/25 11:31:17;;;;;;;42.20;25.48;;;;;;;;;;5037531;28;20217;-69
2021/03/25 11:33:43;;;;;;;43.92;24.85;;;;;;;;;;5036934;28;20236;-70
2021/03/25 11:36:09;;;;;;;39.03;22.83;;;;;;;;;;5034815;28;20213;-71
2021/03/25 11:38:44;;;;;;;40.08;24.35;;;;;;;;;;5035801;28;20223;-69
2021/03/25 11:41:17;;;;;;;41.13;25.73;;;;;;;;;;5032532;28;20220;-71
2021/03/25 11:44:05;;;;;;;46.33;27.02;;;;;;;;;;5041459;28;20186;-69
2021/03/25 11:46:45;;;;;;;44.95;27.05;;;;;;;;;;5033260;28;20829;-69
2021/03/25 11:49:12;;;;;;;42.03;25.83;;;;;;;;;;5040206;28;20499;-69
2021/03/25 11:51:44;;;;;;;44.08;25.67;;;;;;;;;;5023537;28;20185;-69
2021/03/25 11:54:31;;;;;;;45.85;26.35;;;;;;;;;;5037631;28;20196;-69
2021/03/25 11:57:01;;;;;;;52.00;26.77;;;;;;;;;;5035755;28;20186;-68
2021/03/25 11:59:34;;;;;;;48.78;27.10;;;;;;;;;;5035735;28;20224;-69
2021/03/25 12:02:27;;;;;;;43.65;26.10;;;;;;;;;;5035926;28;20236;-71
2021/03/25 12:04:53;;;;;;;40.92;25.70;;;;;;;;;;5035092;28;20201;-70
2021/03/25 12:07:20;;;;;;;37.17;23.20;;;;;;;;;;5031704;28;20186;-70
2021/03/25 12:10:13;;;;;;;38.72;22.83;;;;;;;;;;5039025;28;20201;-70
2021/03/25 12:12:41;;;;;;;38.83;21.88;;;;;;;;;;5028141;28;20319;-70
2021/03/25 12:15:08;;;;;;;38.72;23.75;;;;;;;;;;5032453;28;20194;-70
2021/03/25 12:17:33;;;;;;;39.40;24.55;;;;;;;;;;5030233;28;20206;-70
2021/03/25 12:19:59;;;;;;;42.28;24.25;;;;;;;;;;5039229;28;20186;-70
2021/03/25 12:22:28;;;;;;;34.40;21.52;;;;;;;;;;5031939;28;20216;-70
2021/03/25 12:24:54;;;;;;;35.30;21.33;;;;;;;;;;5041864;28;20193;-70
2021/03/25 12:27:25;;;;;;;36.15;21.30;;;;;;;;;;5032170;28;20190;-70
2021/03/25 12:29:55;;;;;;;36.55;22.70;;;;;;;;;;5045355;28;20243;-70
2021/03/25 12:32:25;;;;;;;41.67;25.00;;;;;;;;;;5028369;28;20209;-70
2021/03/25 12:34:50;;;;;;;43.22;25.15;;;;;;;;;;5042631;28;20186;-70
2021/03/25 12:37:16;;;;;;;39.55;23.38;;;;;;;;;;5029664;28;20208;-70
2021/03/25 12:39:41;;;;;;;40.67;23.95;;;;;;;;;;5041373;28;20201;-70
2021/03/25 12:42:07;;;;;;;35.47;23.58;;;;;;;;;;5034982;28;20204;-70
2021/03/25 12:44:33;;;;;;;40.00;25.42;;;;;;;;;;5045827;28;20228;-71
2021/03/25 12:47:00;;;;;;;43.42;25.25;;;;;;;;;;5045650;28;20271;-70
2021/03/25 12:49:26;;;;;;;44.85;25.52;;;;;;;;;;5035132;28;20282;-70
2021/03/25 12:51:51;;;;;;;38.75;23.38;;;;;;;;;;5047162;28;20639;-71
2021/03/25 12:54:17;;;;;;;39.50;23.15;;;;;;;;;;5034334;28;20189;-71
2021/03/25 12:56:42;;;;;;;34.22;21.95;;;;;;;;;;5046321;28;20174;-70
2021/03/25 12:59:13;;;;;;;38.00;21.50;;;;;;;;;;5035710;28;20193;-71
2021/03/25 13:01:39;;;;;;;32.75;20.00;;;;;;;;;;5044444;28;20220;-71
2021/03/25 13:04:05;;;;;;;29.95;19.05;;;;;;;;;;5038151;28;20544;-71
2021/03/25 13:06:30;;;;;;;30.92;19.25;;;;;;;;;;5042766;28;20204;-70
2021/03/25 13:08:55;;;;;;;30.42;19.23;;;;;;;;;;5032320;28;20201;-70
2021/03/25 13:11:25;;;;;;;36.03;21.85;;;;;;;;;;5034627;28;20205;-70
2021/03/25 13:13:51;;;;;;;34.55;22.77;;;;;;;;;;5030149;28;20716;-69
2021/03/25 13:16:16;;;;;;;37.67;23.70;;;;;;;;;;5032877;28;20178;-71
2021/03/25 13:18:42;;;;;;;39.97;22.50;;;;;;;;;;5034269;28;20320;-70
2021/03/25 13:21:09;;;;;;;35.03;22.90;;;;;;;;;;5034187;28;20596;-70
2021/03/25 13:23:35;;;;;;;32.40;20.75;;;;;;;;;;5040016;28;20232;-70
2021/03/25 13:26:02;;;;;;;35.50;21.35;;;;;;;;;;5026473;28;20189;-70
2021/03/25 13:28:28;;;;;;;36.75;22.60;;;;;;;;;;5035550;28;20255;-71
2021/03/25 13:30:53;;;;;;;36.05;22.95;;;;;;;;;;5026597;28;20189;-70
2021/03/25 13:33:20;;;;;;;31.70;21.85;;;;;;;;;;5041953;28;20224;-70
2021/03/25 13:35:49;;;;;;;35.25;23.15;;;;;;;;;;4681427;28;10001218;-70
2021/03/25 13:38:15;;;;;;;32.30;22.42;;;;;;;;;;5026885;28;20196;-70
2021/03/25 13:40:42;;;;;;;35.95;24.08;;;;;;;;;;5029327;28;20280;-70
2021/03/25 13:43:11;;;;;;;41.03;25.70;;;;;;;;;;5034911;28;20218;-71
2021/03/25 13:45:37;;;;;;;40.30;26.05;;;;;;;;;;5031709;28;20722;-71
2021/03/25 13:48:02;;;;;;;46.65;28.25;;;;;;;;;;5041620;28;20193;-72
2021/03/25 13:50:32;;;;;;;40.63;28.00;;;;;;;;;;5037613;28;20189;-71
2021/03/25 13:52:59;;;;;;;45.00;28.77;;;;;;;;;;5034886;28;20536;-71
2021/03/25 13:55:42;;;;;;;43.25;28.33;;;;;;;;;;5030535;28;20177;-71
2021/03/25 13:58:10;;;;;;;41.70;28.60;;;;;;;;;;5022573;28;20696;-71
2021/03/25 14:00:36;;;;;;;42.55;28.63;;;;;;;;;;5029853;28;20201;-71
2021/03/25 14:03:04;;;;;;;44.50;28.20;;;;;;;;;;5029549;28;20534;-71
2021/03/25 14:05:30;;;;;;;40.22;27.25;;;;;;;;;;5036938;28;20246;-71
2021/03/25 14:07:56;;;;;;;40.00;25.55;;;;;;;;;;5024831;28;20193;-71
2021/03/25 14:10:24;;;;;;;32.83;22.88;;;;;;;;;;5033719;28;20882;-71
2021/03/25 14:12:50;;;;;;;32.78;22.52;;;;;;;;;;5024221;28;20198;-71
2021/03/25 14:15:23;;;;;;;24.40;17.52;;;;;;;;;;5033512;28;20213;-71
2021/03/25 14:17:48;;;;;;;21.85;14.95;;;;;;;;;;5022619;28;20281;-71
2021/03/25 14:20:17;;;;;;;24.05;15.23;;;;;;;;;;5034991;28;20264;-72
2021/03/25 14:22:43;;;;;;;18.85;13.38;;;;;;;;;;5028258;28;20182;-71
2021/03/25 14:25:18;;;;;;;23.42;15.32;;;;;;;;;;5030331;28;20182;-71
2021/03/25 14:27:43;;;;;;;21.70;13.45;;;;;;;;;;5024283;28;20264;-71
2021/03/25 14:30:09;;;;;;;21.60;14.85;;;;;;;;;;5033567;28;20280;-71
2021/03/25 14:32:34;;;;;;;18.00;11.70;;;;;;;;;;5036797;28;20297;-71
2021/03/25 14:34:59;;;;;;;15.43;11.55;;;;;;;;;;5028101;28;20196;-71
2021/03/25 14:37:25;;;;;;;17.70;10.82;;;;;;;;;;5034263;28;20220;-71
2021/03/25 14:39:50;;;;;;;15.73;10.50;;;;;;;;;;5026236;28;20201;-71
2021/03/25 14:42:15;;;;;;;14.00;9.60;;;;;;;;;;5034893;28;20181;-72
2021/03/25 14:44:41;;;;;;;20.15;10.98;;;;;;;;;;5024858;28;20233;-71
2021/03/25 14:47:06;;;;;;;16.63;10.27;;;;;;;;;;5028679;28;20740;-72
2021/03/25 14:49:32;;;;;;;17.92;10.38;;;;;;;;;;5022883;28;20548;-70
2021/03/25 14:51:57;;;;;;;14.88;9.77;;;;;;;;;;5035239;28;20497;-70